createdAt,value
2022-08-05T00:01:36.570Z,99655.53
2022-08-05T00:04:17.748Z,99652.00
2022-08-05T00:06:45.453Z,99648.00
2022-08-05T00:09:16.047Z,99657.22
2022-08-05T00:11:55.352Z,99650.72
2022-08-05T00:14:27.837Z,99647.50
2022-08-05T00:16:59.184Z,99644.78
2022-08-05T00:19:32.857Z,99652.59
2022-08-05T00:22:02.568Z,99643.28
2022-08-05T00:24:31.116Z,99649.78
2022-08-05T00:27:04.721Z,99649.84
2022-08-05T00:29:38.492Z,99647.41
2022-08-05T00:32:13.060Z,99649.97
2022-08-05T00:35:03.535Z,99651.16
2022-08-05T00:37:35.791Z,99648.31
2022-08-05T00:40:27.329Z,99646.66
2022-08-05T00:42:57.949Z,99641.56
2022-08-05T00:45:38.801Z,99647.72
2022-08-05T00:48:12.799Z,99639.31
2022-08-05T00:50:44.084Z,99643.94
2022-08-05T00:54:01.325Z,99639.00
2022-08-05T00:56:04.648Z,99643.16
2022-08-05T00:58:32.282Z,99643.16
2022-08-05T01:00:59.796Z,99640.69
2022-08-05T01:03:33.521Z,99642.19
2022-08-05T01:06:01.828Z,99639.50
2022-08-05T01:08:43.207Z,99644.31
2022-08-05T01:11:22.428Z,99639.31
2022-08-05T01:14:08.801Z,99635.59
2022-08-05T01:16:54.843Z,99632.72
2022-08-05T01:19:36.839Z,99635.19
2022-08-05T01:22:15.460Z,99637.53
2022-08-05T01:24:52.593Z,99629.28
2022-08-05T01:27:55.294Z,99639.62
2022-08-05T01:30:34.323Z,99637.22
2022-08-05T01:33:08.189Z,99633.72
2022-08-05T01:35:50.757Z,99633.03
2022-08-05T01:38:27.582Z,99637.97
2022-08-05T01:41:01.509Z,99643.09
2022-08-05T01:43:30.419Z,99638.88
2022-08-05T01:46:07.110Z,99641.09
2022-08-05T01:48:45.620Z,99646.75
2022-08-05T01:51:18.864Z,99644.88
2022-08-05T01:53:57.708Z,99647.72
2022-08-05T01:58:10.298Z,99643.41
2022-08-05T01:59:22.494Z,99638.38
2022-08-05T02:01:51.920Z,99645.34
2022-08-05T02:04:24.181Z,99639.28
2022-08-05T02:06:53.120Z,99641.13
2022-08-05T02:09:20.928Z,99641.06
2022-08-05T02:11:53.630Z,99641.47
2022-08-05T02:14:44.314Z,99637.53
2022-08-05T02:18:27.916Z,99630.50
2022-08-05T02:20:23.397Z,99634.47
2022-08-05T02:23:03.529Z,99640.28
2022-08-05T02:25:49.332Z,99639.12
2022-08-05T02:28:32.164Z,99636.16
2022-08-05T02:31:07.494Z,99633.44
2022-08-05T02:33:39.750Z,99630.41
2022-08-05T02:36:16.945Z,99639.84
2022-08-05T02:38:52.957Z,99635.91
2022-08-05T02:41:23.141Z,99632.44
2022-08-05T02:44:02.747Z,99623.81
2022-08-05T02:46:53.789Z,99631.50
2022-08-05T02:49:35.756Z,99625.28
2022-08-05T02:52:07.905Z,99631.34
2022-08-05T02:54:41.561Z,99630.13
2022-08-05T02:58:12.159Z,99632.91
2022-08-05T03:00:04.749Z,99633.44
2022-08-05T03:02:36.757Z,99626.72
2022-08-05T03:05:05.531Z,99624.72
2022-08-05T03:07:59.323Z,99625.50
2022-08-05T03:10:24.870Z,99623.09
2022-08-05T03:12:54.165Z,99614.31
2022-08-05T03:15:23.984Z,99614.56
2022-08-05T03:17:57.480Z,99620.37
2022-08-05T03:20:25.698Z,99619.59
2022-08-05T03:22:57.365Z,99615.88
2022-08-05T03:25:32.402Z,99611.84
2022-08-05T03:28:14.656Z,99609.22
2022-08-05T03:30:47.853Z,99608.19
2022-08-05T03:33:16.480Z,99603.53
2022-08-05T03:35:47.968Z,99612.44
2022-08-05T03:38:15.626Z,99608.69
2022-08-05T03:40:45.121Z,99606.19
2022-08-05T03:44:08.462Z,99605.44
2022-08-05T03:46:04.628Z,99607.03
2022-08-05T03:48:35.613Z,99605.66
2022-08-05T03:52:37.148Z,99607.44
2022-08-05T03:55:51.364Z,99598.66
2022-08-05T03:56:53.199Z,99607.88
2022-08-05T03:59:24.730Z,99611.50
2022-08-05T04:01:53.836Z,99613.28
2022-08-05T04:04:27.468Z,99607.69
2022-08-05T04:06:55.996Z,99620.09
2022-08-05T04:09:26.402Z,99617.31
2022-08-05T04:11:56.532Z,99622.13
2022-08-05T04:14:30.571Z,99615.06
2022-08-05T04:17:00.207Z,99619.91
2022-08-05T04:19:29.253Z,99619.56
2022-08-05T04:22:09.009Z,99613.88
2022-08-05T04:24:44.034Z,99608.31
2022-08-05T04:27:13.487Z,99610.97
2022-08-05T04:29:41.686Z,99611.09
2022-08-05T04:32:10.298Z,99609.31
2022-08-05T04:34:42.830Z,99607.13
2022-08-05T04:37:11.346Z,99609.63
2022-08-05T04:39:39.184Z,99608.22
2022-08-05T04:42:08.000Z,99611.38
2022-08-05T04:44:36.882Z,99611.09
2022-08-05T04:47:09.046Z,99612.06
2022-08-05T04:50:01.738Z,99605.37
2022-08-05T04:52:28.381Z,99614.69
2022-08-05T04:54:57.267Z,99618.91
2022-08-05T04:57:28.662Z,99615.06
2022-08-05T04:59:58.816Z,99614.72
2022-08-05T05:02:36.680Z,99619.59
2022-08-05T05:05:26.221Z,99610.03
2022-08-05T05:07:56.533Z,99616.41
2022-08-05T05:10:33.866Z,99614.03
2022-08-05T05:13:03.995Z,99616.88
2022-08-05T05:16:02.028Z,99615.13
2022-08-05T05:18:31.075Z,99612.44
2022-08-05T05:21:03.615Z,99611.00
2022-08-05T05:24:02.111Z,99610.78
2022-08-05T05:26:19.588Z,99612.13
2022-08-05T05:28:56.282Z,99612.53
2022-08-05T05:31:24.816Z,99608.62
2022-08-05T05:33:59.393Z,99601.75
2022-08-05T05:36:28.590Z,99615.66
2022-08-05T05:38:57.956Z,99609.47
2022-08-05T05:41:26.394Z,99603.63
2022-08-05T05:44:35.590Z,99606.03
2022-08-05T05:46:57.098Z,99605.00
2022-08-05T05:49:28.724Z,99603.59
2022-08-05T05:51:56.882Z,99606.84
2022-08-05T05:54:49.741Z,99605.41
2022-08-05T05:57:13.753Z,99603.94
2022-08-05T05:59:47.874Z,99596.53
2022-08-05T06:02:17.040Z,99601.91
2022-08-05T06:05:03.405Z,99609.41
2022-08-05T06:07:41.372Z,99605.37
2022-08-05T06:10:10.736Z,99608.28
2022-08-05T06:12:42.059Z,99596.59
2022-08-05T06:15:16.182Z,99601.06
2022-08-05T06:17:53.068Z,99599.97
2022-08-05T06:20:21.986Z,99609.22
2022-08-05T06:22:49.424Z,99610.03
2022-08-05T06:25:24.237Z,99607.41
2022-08-05T06:28:10.931Z,99610.13
2022-08-05T06:30:47.833Z,99597.72
2022-08-05T06:33:19.327Z,99603.81
2022-08-05T06:36:07.389Z,99603.00
2022-08-05T06:38:37.702Z,99597.34
2022-08-05T06:41:08.136Z,99599.09
2022-08-05T06:43:58.763Z,99599.75
2022-08-05T06:46:29.891Z,99605.28
2022-08-05T06:48:59.647Z,99602.69
2022-08-05T06:51:30.711Z,99614.28
2022-08-05T06:53:59.899Z,99606.53
2022-08-05T06:56:28.043Z,99609.34
2022-08-05T06:58:55.875Z,99608.94
2022-08-05T07:01:23.605Z,99598.84
2022-08-05T07:03:55.218Z,99612.25
2022-08-05T07:06:23.341Z,99604.16
2022-08-05T07:08:52.030Z,99609.16
2022-08-05T07:11:25.461Z,99614.63
2022-08-05T07:14:15.414Z,99608.34
2022-08-05T07:18:08.483Z,99615.78
2022-08-05T07:22:30.059Z,99612.56
2022-08-05T07:24:59.523Z,99614.16
2022-08-05T07:27:57.542Z,99613.88
2022-08-05T07:30:32.701Z,99607.31
2022-08-05T07:33:09.073Z,99607.56
2022-08-05T07:36:03.791Z,99614.19
2022-08-05T07:38:33.695Z,99603.47
2022-08-05T07:42:12.847Z,99604.84
2022-08-05T07:44:14.498Z,99606.78
2022-08-05T07:46:48.650Z,99604.31
2022-08-05T07:49:18.327Z,99603.22
2022-08-05T07:51:53.320Z,99600.75
2022-08-05T07:54:31.305Z,99605.97
2022-08-05T07:57:22.753Z,99604.87
2022-08-05T07:59:50.341Z,99603.22
2022-08-05T08:02:18.466Z,99606.50
2022-08-05T08:04:47.291Z,99608.16
2022-08-05T08:07:15.329Z,99605.44
2022-08-05T08:09:43.626Z,99611.75
2022-08-05T08:12:35.457Z,99608.75
2022-08-05T08:15:02.686Z,99607.91
2022-08-05T08:17:32.373Z,99595.28
2022-08-05T08:20:22.696Z,99604.31
2022-08-05T08:22:55.670Z,99600.66
2022-08-05T08:25:27.030Z,99599.31
2022-08-05T08:28:18.376Z,99602.00
2022-08-05T08:31:01.268Z,99605.56
2022-08-05T08:33:28.977Z,99588.28
2022-08-05T08:38:53.443Z,99598.69
2022-08-05T08:41:26.354Z,99595.56
2022-08-05T08:47:22.351Z,99594.06
2022-08-05T08:50:30.710Z,99604.63
2022-08-05T08:52:57.783Z,99587.69
2022-08-05T08:56:01.590Z,99590.75
2022-08-05T08:58:15.274Z,99592.13
2022-08-05T09:00:44.509Z,99595.13
2022-08-05T09:03:16.273Z,99586.28
2022-08-05T09:06:08.949Z,99589.44
2022-08-05T09:08:40.230Z,99589.28
2022-08-05T09:11:12.304Z,99587.19
2022-08-05T09:14:10.360Z,99579.97
2022-08-05T09:16:30.980Z,99573.97
2022-08-05T09:18:59.280Z,99574.53
2022-08-05T09:22:22.777Z,99587.69
2022-08-05T09:28:37.716Z,99573.03
2022-08-05T09:31:44.060Z,99576.31
2022-08-05T09:34:04.045Z,99564.00
2022-08-05T09:36:55.129Z,99560.91
2022-08-05T09:39:45.634Z,99556.63
2022-08-05T09:46:06.648Z,99558.22
2022-08-05T09:49:06.491Z,99552.88
2022-08-05T09:51:38.554Z,99544.88
2022-08-05T09:54:10.484Z,99545.94
2022-08-05T09:56:39.437Z,99550.28
2022-08-05T09:59:09.550Z,99551.44
2022-08-05T10:01:45.882Z,99547.88
2022-08-05T10:04:16.243Z,99537.28
2022-08-05T10:06:59.117Z,99536.91
2022-08-05T10:09:29.545Z,99535.50
2022-08-05T10:12:18.683Z,99531.25
2022-08-05T10:15:20.279Z,99522.84
2022-08-05T10:18:09.713Z,99525.38
2022-08-05T10:20:50.573Z,99525.75
2022-08-05T10:23:34.339Z,99512.44
2022-08-05T10:26:13.826Z,99517.97
2022-08-05T10:28:46.372Z,99508.75
2022-08-05T10:32:50.554Z,99510.09
2022-08-05T10:34:03.608Z,99508.44
2022-08-05T10:36:31.271Z,99505.22
2022-08-05T10:39:05.299Z,99504.03
2022-08-05T10:42:03.901Z,99507.03
2022-08-05T10:44:32.393Z,99511.34
2022-08-05T10:47:26.614Z,99500.56
2022-08-05T10:50:31.692Z,99497.09
2022-08-05T10:52:58.531Z,99502.22
2022-08-05T10:55:27.101Z,99493.41
2022-08-05T10:58:09.369Z,99490.87
2022-08-05T11:00:46.173Z,99496.41
2022-08-05T11:03:24.258Z,99485.13
2022-08-05T11:06:16.234Z,99481.78
2022-08-05T11:09:13.207Z,99486.69
2022-08-05T11:11:53.003Z,99487.50
2022-08-05T11:14:42.831Z,99492.00
2022-08-05T11:17:59.813Z,99487.91
2022-08-05T11:20:43.674Z,99494.22
2022-08-05T11:29:41.008Z,99481.34
2022-08-05T11:32:26.916Z,99473.28
2022-08-05T11:34:55.357Z,99468.91
2022-08-05T11:38:29.337Z,99474.50
2022-08-05T11:41:14.045Z,99471.72
2022-08-05T11:44:05.473Z,99467.87
2022-08-05T11:47:09.422Z,99461.59
2022-08-05T11:49:42.825Z,99466.53
2022-08-05T11:52:11.979Z,99468.47
2022-08-05T11:54:41.623Z,99466.19
2022-08-05T11:57:24.487Z,99466.53
2022-08-05T11:59:58.974Z,99465.88
2022-08-05T12:02:31.659Z,99477.72
2022-08-05T12:05:07.117Z,99463.25
2022-08-05T12:08:10.330Z,99470.31
2022-08-05T12:10:43.272Z,99463.28
2022-08-05T12:13:16.488Z,99473.09
2022-08-05T12:15:49.658Z,99457.94
2022-08-05T12:18:19.089Z,99460.06
2022-08-05T12:20:48.424Z,99461.03
2022-08-05T12:23:16.794Z,99462.34
2022-08-05T12:25:56.698Z,99451.03
2022-08-05T12:38:15.751Z,99446.91
2022-08-05T12:40:50.798Z,99455.13
2022-08-05T12:43:21.037Z,99450.97
2022-08-05T12:45:55.939Z,99457.25
2022-08-05T12:48:27.665Z,99452.69
2022-08-05T12:51:21.612Z,99449.25
2022-08-05T12:54:01.938Z,99446.94
2022-08-05T12:56:34.857Z,99437.50
2022-08-05T12:59:20.745Z,99455.13
2022-08-05T13:02:07.504Z,99438.63
2022-08-05T13:04:54.534Z,99435.44
2022-08-05T13:07:55.875Z,99428.63
2022-08-05T13:10:19.960Z,99425.81
2022-08-05T13:12:50.723Z,99421.69
2022-08-05T13:15:41.887Z,99418.34
2022-08-05T13:18:20.235Z,99413.31
2022-08-05T13:20:49.701Z,99401.81
2022-08-05T13:23:22.698Z,99406.72
2022-08-05T13:25:59.171Z,99402.31
2022-08-05T13:28:27.949Z,99395.31
2022-08-05T13:30:57.219Z,99400.47
2022-08-05T13:34:21.145Z,99392.56
2022-08-05T13:36:14.482Z,99391.44
2022-08-05T13:38:43.055Z,99390.13
2022-08-05T13:41:11.744Z,99385.00
2022-08-05T13:43:45.266Z,99387.78
2022-08-05T13:46:50.985Z,99385.72
2022-08-05T13:49:13.694Z,99370.56
2022-08-05T13:51:46.538Z,99378.03
2022-08-05T13:54:16.464Z,99376.06
2022-08-05T13:56:50.784Z,99364.88
2022-08-05T13:59:23.822Z,99370.94
2022-08-05T14:02:00.363Z,99366.75
2022-08-05T14:04:52.104Z,99358.13
2022-08-05T14:07:26.362Z,99367.00
2022-08-05T14:10:18.402Z,99357.19
2022-08-05T14:12:48.630Z,99357.31
2022-08-05T14:16:04.602Z,99354.13
2022-08-05T14:18:05.031Z,99347.25
2022-08-05T14:20:32.769Z,99348.88
2022-08-05T14:23:00.718Z,99340.53
2022-08-05T14:25:30.402Z,99337.16
2022-08-05T14:27:58.294Z,99348.72
2022-08-05T14:30:26.772Z,99341.41
2022-08-05T14:32:56.789Z,99346.09
2022-08-05T14:35:36.252Z,99338.63
2022-08-05T14:38:05.089Z,99343.31
2022-08-05T14:40:32.807Z,99335.06
2022-08-05T14:43:01.507Z,99334.50
2022-08-05T14:45:28.966Z,99327.88
2022-08-05T14:48:04.918Z,99332.88
2022-08-05T14:50:36.063Z,99341.28
2022-08-05T14:53:08.822Z,99320.84
2022-08-05T14:55:39.008Z,99324.94
2022-08-05T14:58:12.032Z,99318.66
2022-08-05T15:00:59.333Z,99319.12
2022-08-05T15:03:33.355Z,99310.31
2022-08-05T15:06:15.468Z,99307.87
2022-08-05T15:08:59.705Z,99313.09
2022-08-05T15:11:53.272Z,99312.00
2022-08-05T15:14:35.618Z,99309.72
2022-08-05T15:17:44.848Z,99313.97
2022-08-05T15:20:00.470Z,99305.88
2022-08-05T15:22:28.718Z,99299.81
2022-08-05T15:24:56.842Z,99305.63
2022-08-05T15:27:25.776Z,99297.53
2022-08-05T15:29:56.657Z,99296.47
2022-08-05T15:32:27.425Z,99295.06
2022-08-05T15:34:57.246Z,99288.38
2022-08-05T15:38:32.562Z,99293.09
2022-08-05T15:41:03.017Z,99283.66
2022-08-05T15:43:09.202Z,99286.00
2022-08-05T15:45:47.695Z,99273.56
2022-08-05T15:48:28.388Z,99279.38
2022-08-05T15:50:56.342Z,99269.94
2022-08-05T15:53:26.521Z,99273.09
2022-08-05T15:56:09.100Z,99277.50
2022-08-05T15:58:41.532Z,99276.94
2022-08-05T16:01:16.985Z,99272.06
2022-08-05T16:03:48.461Z,99273.28
2022-08-05T16:06:26.793Z,99278.66
2022-08-05T16:09:00.099Z,99276.72
2022-08-05T16:11:43.049Z,99277.25
2022-08-05T16:14:17.183Z,99281.53
2022-08-05T16:16:46.104Z,99280.06
2022-08-05T16:20:02.781Z,99287.44
2022-08-05T16:22:10.756Z,99282.56
2022-08-05T16:24:40.687Z,99277.59
2022-08-05T16:27:18.677Z,99284.94
2022-08-05T16:29:50.912Z,99284.47
2022-08-05T16:32:28.399Z,99281.72
2022-08-05T16:34:58.894Z,99278.16
2022-08-05T16:38:16.394Z,99271.94
2022-08-05T16:40:26.623Z,99278.28
2022-08-05T16:42:57.361Z,99276.69
2022-08-05T16:46:04.214Z,99266.91
2022-08-05T16:48:25.939Z,99265.62
2022-08-05T16:51:00.171Z,99265.62
2022-08-05T16:53:32.024Z,99269.69
2022-08-05T16:56:00.546Z,99262.97
2022-08-05T16:58:29.402Z,99261.50
2022-08-05T17:01:00.358Z,99269.34
2022-08-05T17:03:28.100Z,99267.38
2022-08-05T17:06:00.466Z,99262.97
2022-08-05T17:08:33.386Z,99269.00
2022-08-05T17:11:16.970Z,99268.13
2022-08-05T17:13:46.037Z,99274.12
2022-08-05T17:16:32.727Z,99274.94
2022-08-05T17:19:01.709Z,99277.03
2022-08-05T17:21:36.280Z,99275.91
2022-08-05T17:24:36.505Z,99277.47
2022-08-05T17:27:12.533Z,99274.69
2022-08-05T17:29:47.154Z,99278.06
2022-08-05T17:32:19.822Z,99272.91
2022-08-05T17:34:49.241Z,99278.22
2022-08-05T17:37:35.988Z,99270.22
2022-08-05T17:40:13.276Z,99279.25
2022-08-05T17:42:46.448Z,99274.22
2022-08-05T17:45:22.241Z,99282.22
2022-08-05T17:47:55.000Z,99273.78
2022-08-05T17:50:28.790Z,99278.78
2022-08-05T17:53:02.548Z,99277.63
2022-08-05T17:55:37.498Z,99268.28
2022-08-05T17:58:09.348Z,99272.91
2022-08-05T18:00:40.857Z,99278.84
2022-08-05T18:03:24.129Z,99283.13
2022-08-05T18:06:06.128Z,99288.00
2022-08-05T18:08:44.865Z,99283.69
2022-08-05T18:11:24.293Z,99281.31
2022-08-05T18:14:04.201Z,99279.44
2022-08-05T18:16:33.331Z,99277.44
2022-08-05T18:19:02.240Z,99278.44
2022-08-05T18:22:08.646Z,99275.06
2022-08-05T18:24:18.977Z,99270.09
2022-08-05T18:26:52.428Z,99282.44
2022-08-05T18:29:40.359Z,99276.03
2022-08-05T18:32:12.674Z,99274.41
2022-08-05T18:34:42.996Z,99277.16
2022-08-05T18:37:12.514Z,99280.78
2022-08-05T18:40:34.288Z,99291.97
2022-08-05T18:42:33.226Z,99296.34
2022-08-05T18:45:01.650Z,99287.63
2022-08-05T18:47:31.046Z,99290.28
2022-08-05T18:50:20.885Z,99287.59
2022-08-05T18:53:15.053Z,99290.22
2022-08-05T18:55:49.674Z,99302.28
2022-08-05T18:58:27.174Z,99300.22
2022-08-05T19:00:57.458Z,99306.38
2022-08-05T19:03:52.909Z,99304.25
2022-08-05T19:06:22.192Z,99300.31
2022-08-05T19:09:01.623Z,99295.31
2022-08-05T19:11:58.642Z,99299.97
2022-08-05T19:14:59.313Z,99301.28
2022-08-05T19:17:07.751Z,99301.59
2022-08-05T19:19:35.626Z,99304.09
2022-08-05T19:22:04.426Z,99302.16
2022-08-05T19:24:36.128Z,99305.25
2022-08-05T19:27:06.208Z,99310.19
2022-08-05T19:29:35.897Z,99311.44
2022-08-05T19:32:11.363Z,99310.66
2022-08-05T19:34:39.977Z,99317.47
2022-08-05T19:37:08.800Z,99323.53
2022-08-05T19:39:45.469Z,99317.78
2022-08-05T19:42:35.304Z,99314.22
2022-08-05T19:45:06.069Z,99316.72
2022-08-05T19:47:37.630Z,99317.53
2022-08-05T19:50:07.920Z,99312.88
2022-08-05T19:52:40.821Z,99307.44
2022-08-05T19:56:13.795Z,99308.22
2022-08-05T19:58:06.817Z,99312.59
2022-08-05T20:00:45.595Z,99303.84
2022-08-05T20:03:13.767Z,99308.50
2022-08-05T20:05:50.198Z,99308.19
2022-08-05T20:08:20.705Z,99310.94
2022-08-05T20:10:52.894Z,99313.13
2022-08-05T20:13:54.463Z,99315.34
2022-08-05T20:16:10.143Z,99315.87
2022-08-05T20:18:39.041Z,99306.22
2022-08-05T20:21:08.274Z,99312.75
2022-08-05T20:23:44.502Z,99309.72
2022-08-05T20:26:21.342Z,99317.75
2022-08-05T20:28:55.578Z,99327.34
2022-08-05T20:31:37.324Z,99331.72
2022-08-05T20:34:13.789Z,99328.97
2022-08-05T20:36:43.407Z,99328.19
2022-08-05T20:39:12.938Z,99326.78
2022-08-05T20:41:43.272Z,99326.22
2022-08-05T20:44:18.884Z,99335.53
2022-08-05T20:47:01.632Z,99333.84
2022-08-05T20:49:33.185Z,99339.88
2022-08-05T20:52:08.834Z,99344.22
2022-08-05T20:54:43.066Z,99346.34
2022-08-05T20:57:43.511Z,99341.41
2022-08-05T21:00:34.951Z,99340.31
2022-08-05T21:03:07.574Z,99336.44
2022-08-05T21:05:47.637Z,99345.78
2022-08-05T21:08:26.939Z,99349.09
2022-08-05T21:11:01.584Z,99342.12
2022-08-05T21:13:47.820Z,99350.72
2022-08-05T21:16:29.949Z,99339.22
2022-08-05T21:19:03.565Z,99342.44
2022-08-05T21:21:39.685Z,99350.63
2022-08-05T21:24:13.503Z,99351.22
2022-08-05T21:26:53.712Z,99353.78
2022-08-05T21:29:31.813Z,99357.44
2022-08-05T21:32:03.395Z,99352.16
2022-08-05T21:34:33.121Z,99359.94
2022-08-05T21:37:04.884Z,99360.44
2022-08-05T21:39:34.743Z,99370.16
2022-08-05T21:42:30.752Z,99363.59
2022-08-05T21:44:58.196Z,99367.38
2022-08-05T21:47:56.124Z,99361.91
2022-08-05T21:50:15.116Z,99358.47
2022-08-05T21:52:47.375Z,99361.72
2022-08-05T21:55:15.067Z,99355.72
2022-08-05T21:57:42.971Z,99364.56
2022-08-05T22:00:11.766Z,99365.31
2022-08-05T22:02:41.611Z,99367.78
2022-08-05T22:05:12.405Z,99368.13
2022-08-05T22:07:58.417Z,99374.00
2022-08-05T22:10:28.151Z,99370.75
2022-08-05T22:12:58.763Z,99366.88
2022-08-05T22:16:02.461Z,99368.50
2022-08-05T22:18:14.789Z,99373.56
2022-08-05T22:20:44.251Z,99362.72
2022-08-05T22:24:01.041Z,99366.56
2022-08-05T22:26:38.296Z,99367.56
2022-08-05T22:29:05.965Z,99369.53
2022-08-05T22:31:44.918Z,99365.59
2022-08-05T22:34:20.153Z,99371.66
2022-08-05T22:36:58.406Z,99366.47
2022-08-05T22:39:33.226Z,99365.81
2022-08-05T22:42:09.442Z,99363.47
2022-08-05T22:44:39.474Z,99362.09
2022-08-05T22:47:08.058Z,99362.06
2022-08-05T22:50:20.522Z,99361.56
2022-08-05T22:52:32.203Z,99363.31
2022-08-05T22:55:02.248Z,99361.34
2022-08-05T22:57:34.150Z,99362.53
2022-08-05T23:00:07.811Z,99359.31
2022-08-05T23:02:40.044Z,99352.19
2022-08-05T23:05:16.495Z,99356.31
2022-08-05T23:07:48.257Z,99351.06
2022-08-05T23:10:19.573Z,99352.25
2022-08-05T23:12:54.524Z,99359.38
2022-08-05T23:15:29.304Z,99357.34
2022-08-05T23:18:01.401Z,99352.00
2022-08-05T23:20:37.497Z,99357.19
2022-08-05T23:23:08.014Z,99362.53
2022-08-05T23:25:54.968Z,99353.31
2022-08-05T23:28:29.104Z,99359.19
2022-08-05T23:31:07.042Z,99357.88
2022-08-05T23:34:04.446Z,99357.94
2022-08-05T23:36:39.848Z,99356.94
2022-08-05T23:39:17.387Z,99347.59
2022-08-05T23:41:52.327Z,99351.28
2022-08-05T23:44:25.198Z,99349.94
2022-08-05T23:46:56.056Z,99353.09
2022-08-05T23:49:35.772Z,99349.66
2022-08-05T23:52:25.417Z,99353.09
2022-08-05T23:54:54.539Z,99349.59
2022-08-05T23:57:22.118Z,99347.53
